sensor_id;sensor_type;location;lat;lon;timestamp;P1;durP1;ratioP1;P2;durP2;ratioP2
34920;SDS011;21128;50.016;20.002;2023-10-13T00:00:38;9.10;;;5.40;;
34920;SDS011;21128;50.016;20.002;2023-10-13T00:03:27;11.80;;;5.50;;
34920;SDS011;21128;50.016;20.002;2023-10-13T00:05:58;11.10;;;5.60;;
34920;SDS011;21128;50.016;20.002;2023-10-13T00:08:29;13.50;;;5.30;;
34920;SDS011;21128;50.016;20.002;2023-10-13T00:10:56;13.50;;;5.10;;
34920;SDS011;21128;50.016;20.002;2023-10-13T00:13:27;17.10;;;5.10;;
34920;SDS011;21128;50.016;20.002;2023-10-13T00:15:54;11.10;;;4.90;;
34920;SDS011;21128;50.016;20.002;2023-10-13T00:18:26;13.90;;;5.20;;
34920;SDS011;21128;50.016;20.002;2023-10-13T00:21:00;12.50;;;6.00;;
34920;SDS011;21128;50.016;20.002;2023-10-13T00:23:27;10.50;;;5.60;;
34920;SDS011;21128;50.016;20.002;2023-10-13T00:25:54;15.00;;;6.00;;
34920;SDS011;21128;50.016;20.002;2023-10-13T00:28:25;11.00;;;5.60;;
34920;SDS011;21128;50.016;20.002;2023-10-13T00:31:01;15.80;;;5.70;;
34920;SDS011;21128;50.016;20.002;2023-10-13T00:33:37;15.20;;;6.00;;
34920;SDS011;21128;50.016;20.002;2023-10-13T00:36:05;13.40;;;5.70;;
34920;SDS011;21128;50.016;20.002;2023-10-13T00:38:34;14.00;;;6.50;;
34920;SDS011;21128;50.016;20.002;2023-10-13T00:41:04;10.70;;;5.40;;
34920;SDS011;21128;50.016;20.002;2023-10-13T00:43:47;13.50;;;6.50;;
34920;SDS011;21128;50.016;20.002;2023-10-13T00:46:34;15.80;;;5.80;;
34920;SDS011;21128;50.016;20.002;2023-10-13T00:49:03;12.30;;;5.80;;
34920;SDS011;21128;50.016;20.002;2023-10-13T00:51:35;14.40;;;6.20;;
34920;SDS011;21128;50.016;20.002;2023-10-13T00:54:02;16.10;;;5.80;;
34920;SDS011;21128;50.016;20.002;2023-10-13T00:56:34;15.50;;;6.10;;
34920;SDS011;21128;50.016;20.002;2023-10-13T00:59:07;11.80;;;5.60;;
34920;SDS011;21128;50.016;20.002;2023-10-13T01:01:36;12.00;;;5.60;;
34920;SDS011;21128;50.016;20.002;2023-10-13T01:04:03;19.60;;;5.90;;
34920;SDS011;21128;50.016;20.002;2023-10-13T01:06:35;15.70;;;6.00;;
34920;SDS011;21128;50.016;20.002;2023-10-13T01:09:08;15.50;;;5.90;;
34920;SDS011;21128;50.016;20.002;2023-10-13T01:11:46;20.10;;;6.00;;
34920;SDS011;21128;50.016;20.002;2023-10-13T01:14:18;12.40;;;6.00;;
34920;SDS011;21128;50.016;20.002;2023-10-13T01:16:47;14.50;;;6.40;;
34920;SDS011;21128;50.016;20.002;2023-10-13T01:19:18;13.90;;;6.90;;
34920;SDS011;21128;50.016;20.002;2023-10-13T01:21:51;20.50;;;7.10;;
34920;SDS011;21128;50.016;20.002;2023-10-13T01:24:23;12.80;;;6.40;;
34920;SDS011;21128;50.016;20.002;2023-10-13T01:26:50;16.80;;;6.80;;
34920;SDS011;21128;50.016;20.002;2023-10-13T01:29:20;12.20;;;6.40;;
34920;SDS011;21128;50.016;20.002;2023-10-13T01:31:52;16.40;;;5.80;;
34920;SDS011;21128;50.016;20.002;2023-10-13T01:34:19;12.60;;;6.60;;
34920;SDS011;21128;50.016;20.002;2023-10-13T01:36:48;16.60;;;6.40;;
34920;SDS011;21128;50.016;20.002;2023-10-13T01:39:17;9.60;;;5.60;;
34920;SDS011;21128;50.016;20.002;2023-10-13T01:41:46;20.70;;;6.70;;
34920;SDS011;21128;50.016;20.002;2023-10-13T01:44:22;20.30;;;6.00;;
34920;SDS011;21128;50.016;20.002;2023-10-13T01:46:49;12.30;;;5.70;;
34920;SDS011;21128;50.016;20.002;2023-10-13T01:49:17;12.90;;;5.50;;
34920;SDS011;21128;50.016;20.002;2023-10-13T01:51:44;17.40;;;5.40;;
34920;SDS011;21128;50.016;20.002;2023-10-13T01:54:13;9.60;;;5.30;;
34920;SDS011;21128;50.016;20.002;2023-10-13T01:56:42;15.30;;;5.60;;
34920;SDS011;21128;50.016;20.002;2023-10-13T01:59:12;10.80;;;5.30;;
34920;SDS011;21128;50.016;20.002;2023-10-13T02:01:40;13.20;;;6.10;;
34920;SDS011;21128;50.016;20.002;2023-10-13T02:04:08;13.50;;;5.30;;
34920;SDS011;21128;50.016;20.002;2023-10-13T02:06:37;8.40;;;4.50;;
34920;SDS011;21128;50.016;20.002;2023-10-13T02:11:44;13.80;;;4.80;;
34920;SDS011;21128;50.016;20.002;2023-10-13T02:14:15;12.60;;;5.30;;
34920;SDS011;21128;50.016;20.002;2023-10-13T02:16:43;15.00;;;5.60;;
34920;SDS011;21128;50.016;20.002;2023-10-13T02:19:13;13.00;;;4.80;;
34920;SDS011;21128;50.016;20.002;2023-10-13T02:21:42;14.40;;;5.20;;
34920;SDS011;21128;50.016;20.002;2023-10-13T02:24:11;14.40;;;6.10;;
34920;SDS011;21128;50.016;20.002;2023-10-13T02:26:45;12.40;;;6.60;;
34920;SDS011;21128;50.016;20.002;2023-10-13T02:29:12;14.80;;;6.00;;
34920;SDS011;21128;50.016;20.002;2023-10-13T02:31:42;14.50;;;7.10;;
34920;SDS011;21128;50.016;20.002;2023-10-13T02:34:21;12.80;;;6.00;;
34920;SDS011;21128;50.016;20.002;2023-10-13T02:36:51;16.50;;;6.30;;
34920;SDS011;21128;50.016;20.002;2023-10-13T02:39:20;15.10;;;7.20;;
34920;SDS011;21128;50.016;20.002;2023-10-13T02:41:52;17.20;;;8.40;;
34920;SDS011;21128;50.016;20.002;2023-10-13T02:44:22;14.60;;;8.40;;
34920;SDS011;21128;50.016;20.002;2023-10-13T02:46:58;17.20;;;9.00;;
34920;SDS011;21128;50.016;20.002;2023-10-13T02:49:26;15.10;;;8.10;;
34920;SDS011;21128;50.016;20.002;2023-10-13T02:51:53;14.20;;;7.90;;
34920;SDS011;21128;50.016;20.002;2023-10-13T02:54:25;21.30;;;8.30;;
34920;SDS011;21128;50.016;20.002;2023-10-13T02:56:57;14.30;;;8.20;;
34920;SDS011;21128;50.016;20.002;2023-10-13T02:59:26;14.20;;;7.50;;
34920;SDS011;21128;50.016;20.002;2023-10-13T03:02:01;15.40;;;6.70;;
34920;SDS011;21128;50.016;20.002;2023-10-13T03:07:12;13.30;;;7.00;;
34920;SDS011;21128;50.016;20.002;2023-10-13T03:09:42;15.80;;;7.00;;
34920;SDS011;21128;50.016;20.002;2023-10-13T03:12:18;13.60;;;6.10;;
34920;SDS011;21128;50.016;20.002;2023-10-13T03:14:45;13.40;;;6.80;;
34920;SDS011;21128;50.016;20.002;2023-10-13T03:17:15;10.20;;;5.80;;
34920;SDS011;21128;50.016;20.002;2023-10-13T03:19:45;20.70;;;7.10;;
34920;SDS011;21128;50.016;20.002;2023-10-13T03:22:21;13.80;;;5.80;;
34920;SDS011;21128;50.016;20.002;2023-10-13T03:24:58;17.00;;;6.60;;
34920;SDS011;21128;50.016;20.002;2023-10-13T03:27:33;17.50;;;6.30;;
34920;SDS011;21128;50.016;20.002;2023-10-13T03:30:15;16.70;;;6.40;;
34920;SDS011;21128;50.016;20.002;2023-10-13T03:32:42;13.20;;;6.00;;
34920;SDS011;21128;50.016;20.002;2023-10-13T03:35:11;9.50;;;6.30;;
34920;SDS011;21128;50.016;20.002;2023-10-13T03:37:51;13.30;;;6.60;;
34920;SDS011;21128;50.016;20.002;2023-10-13T03:40:19;7.90;;;6.00;;
34920;SDS011;21128;50.016;20.002;2023-10-13T03:45:26;11.30;;;6.20;;
34920;SDS011;21128;50.016;20.002;2023-10-13T03:47:53;13.80;;;6.00;;
34920;SDS011;21128;50.016;20.002;2023-10-13T03:50:20;11.60;;;6.10;;
34920;SDS011;21128;50.016;20.002;2023-10-13T03:52:58;10.30;;;6.30;;
34920;SDS011;21128;50.016;20.002;2023-10-13T03:55:25;16.80;;;5.50;;
34920;SDS011;21128;50.016;20.002;2023-10-13T03:57:56;15.20;;;6.70;;
34920;SDS011;21128;50.016;20.002;2023-10-13T04:00:26;18.60;;;6.90;;
34920;SDS011;21128;50.016;20.002;2023-10-13T04:02:55;16.00;;;6.70;;
34920;SDS011;21128;50.016;20.002;2023-10-13T04:05:29;16.10;;;7.70;;
34920;SDS011;21128;50.016;20.002;2023-10-13T04:08:13;16.60;;;8.30;;
34920;SDS011;21128;50.016;20.002;2023-10-13T04:10:54;13.40;;;7.20;;
34920;SDS011;21128;50.016;20.002;2023-10-13T04:13:23;17.60;;;6.80;;
34920;SDS011;21128;50.016;20.002;2023-10-13T04:16:08;15.00;;;7.00;;
34920;SDS011;21128;50.016;20.002;2023-10-13T04:22:42;14.60;;;7.40;;
34920;SDS011;21128;50.016;20.002;2023-10-13T04:25:19;21.40;;;7.30;;
34920;SDS011;21128;50.016;20.002;2023-10-13T04:28:07;14.30;;;7.40;;
34920;SDS011;21128;50.016;20.002;2023-10-13T04:30:41;16.60;;;8.20;;
34920;SDS011;21128;50.016;20.002;2023-10-13T04:33:27;16.90;;;7.70;;
34920;SDS011;21128;50.016;20.002;2023-10-13T04:36:14;15.30;;;7.20;;
34920;SDS011;21128;50.016;20.002;2023-10-13T04:39:03;15.10;;;7.90;;
34920;SDS011;21128;50.016;20.002;2023-10-13T04:41:36;17.20;;;8.20;;
34920;SDS011;21128;50.016;20.002;2023-10-13T04:44:05;16.30;;;8.30;;
34920;SDS011;21128;50.016;20.002;2023-10-13T04:46:51;12.90;;;7.80;;
34920;SDS011;21128;50.016;20.002;2023-10-13T04:49:42;21.10;;;9.20;;
34920;SDS011;21128;50.016;20.002;2023-10-13T04:52:09;20.30;;;8.50;;
34920;SDS011;21128;50.016;20.002;2023-10-13T04:54:37;16.70;;;8.30;;
34920;SDS011;21128;50.016;20.002;2023-10-13T05:00:02;15.50;;;7.50;;
34920;SDS011;21128;50.016;20.002;2023-10-13T05:02:38;17.20;;;7.50;;
34920;SDS011;21128;50.016;20.002;2023-10-13T05:05:27;17.50;;;8.10;;
34920;SDS011;21128;50.016;20.002;2023-10-13T05:08:13;21.90;;;7.40;;
34920;SDS011;21128;50.016;20.002;2023-10-13T05:11:05;21.90;;;8.40;;
34920;SDS011;21128;50.016;20.002;2023-10-13T05:14:01;17.00;;;7.40;;
34920;SDS011;21128;50.016;20.002;2023-10-13T05:16:47;15.50;;;7.90;;
34920;SDS011;21128;50.016;20.002;2023-10-13T05:19:33;15.50;;;7.70;;
34920;SDS011;21128;50.016;20.002;2023-10-13T05:22:18;14.60;;;7.50;;
34920;SDS011;21128;50.016;20.002;2023-10-13T05:25:14;14.70;;;6.90;;
34920;SDS011;21128;50.016;20.002;2023-10-13T05:28:00;17.50;;;8.00;;
34920;SDS011;21128;50.016;20.002;2023-10-13T05:30:45;13.50;;;7.10;;
34920;SDS011;21128;50.016;20.002;2023-10-13T05:33:30;15.10;;;7.50;;
34920;SDS011;21128;50.016;20.002;2023-10-13T05:36:16;13.70;;;7.00;;
34920;SDS011;21128;50.016;20.002;2023-10-13T05:39:01;15.90;;;7.30;;
34920;SDS011;21128;50.016;20.002;2023-10-13T05:41:46;14.20;;;7.30;;
34920;SDS011;21128;50.016;20.002;2023-10-13T05:44:32;18.50;;;8.90;;
34920;SDS011;21128;50.016;20.002;2023-10-13T05:47:04;23.50;;;9.00;;
34920;SDS011;21128;50.016;20.002;2023-10-13T05:50:09;24.30;;;10.00;;
34920;SDS011;21128;50.016;20.002;2023-10-13T05:52:46;27.10;;;10.90;;
34920;SDS011;21128;50.016;20.002;2023-10-13T05:55:29;21.00;;;11.70;;
34920;SDS011;21128;50.016;20.002;2023-10-13T05:58:16;24.20;;;11.00;;
34920;SDS011;21128;50.016;20.002;2023-10-13T06:01:01;15.80;;;10.50;;
34920;SDS011;21128;50.016;20.002;2023-10-13T06:03:46;17.60;;;10.70;;
34920;SDS011;21128;50.016;20.002;2023-10-13T06:06:32;24.50;;;11.10;;
34920;SDS011;21128;50.016;20.002;2023-10-13T06:09:18;24.00;;;11.90;;
34920;SDS011;21128;50.016;20.002;2023-10-13T06:12:03;38.00;;;14.50;;
34920;SDS011;21128;50.016;20.002;2023-10-13T06:14:49;47.40;;;15.80;;
34920;SDS011;21128;50.016;20.002;2023-10-13T06:17:34;33.60;;;13.10;;
34920;SDS011;21128;50.016;20.002;2023-10-13T06:20:19;33.60;;;12.30;;
34920;SDS011;21128;50.016;20.002;2023-10-13T06:23:05;27.80;;;11.80;;
34920;SDS011;21128;50.016;20.002;2023-10-13T06:25:51;27.30;;;12.70;;
34920;SDS011;21128;50.016;20.002;2023-10-13T06:28:37;23.90;;;11.80;;
34920;SDS011;21128;50.016;20.002;2023-10-13T06:31:08;31.40;;;11.80;;
34920;SDS011;21128;50.016;20.002;2023-10-13T06:33:48;27.90;;;11.60;;
34920;SDS011;21128;50.016;20.002;2023-10-13T06:36:15;24.70;;;9.70;;
34920;SDS011;21128;50.016;20.002;2023-10-13T06:38:44;20.60;;;9.20;;
34920;SDS011;21128;50.016;20.002;2023-10-13T06:41:11;17.80;;;8.60;;
34920;SDS011;21128;50.016;20.002;2023-10-13T06:43:46;20.80;;;7.70;;
34920;SDS011;21128;50.016;20.002;2023-10-13T06:46:25;21.90;;;9.30;;
34920;SDS011;21128;50.016;20.002;2023-10-13T06:48:54;22.00;;;8.00;;
34920;SDS011;21128;50.016;20.002;2023-10-13T06:51:25;16.30;;;7.90;;
34920;SDS011;21128;50.016;20.002;2023-10-13T06:53:57;20.30;;;8.10;;
34920;SDS011;21128;50.016;20.002;2023-10-13T06:56:24;16.50;;;8.60;;
34920;SDS011;21128;50.016;20.002;2023-10-13T06:58:55;16.90;;;7.70;;
34920;SDS011;21128;50.016;20.002;2023-10-13T07:01:26;14.60;;;7.20;;
34920;SDS011;21128;50.016;20.002;2023-10-13T07:03:54;14.10;;;7.00;;
34920;SDS011;21128;50.016;20.002;2023-10-13T07:06:22;24.40;;;8.30;;
34920;SDS011;21128;50.016;20.002;2023-10-13T07:08:49;17.00;;;8.70;;
34920;SDS011;21128;50.016;20.002;2023-10-13T07:11:19;13.90;;;8.30;;
34920;SDS011;21128;50.016;20.002;2023-10-13T07:14:03;41.20;;;21.90;;
34920;SDS011;21128;50.016;20.002;2023-10-13T07:16:44;26.60;;;12.70;;
34920;SDS011;21128;50.016;20.002;2023-10-13T07:19:25;23.20;;;10.00;;
34920;SDS011;21128;50.016;20.002;2023-10-13T07:21:56;21.50;;;8.70;;
34920;SDS011;21128;50.016;20.002;2023-10-13T07:24:46;18.90;;;8.50;;
34920;SDS011;21128;50.016;20.002;2023-10-13T07:27:20;23.90;;;8.40;;
34920;SDS011;21128;50.016;20.002;2023-10-13T07:29:51;17.50;;;6.70;;
34920;SDS011;21128;50.016;20.002;2023-10-13T07:32:37;15.40;;;6.90;;
34920;SDS011;21128;50.016;20.002;2023-10-13T07:35:04;17.90;;;7.20;;
34920;SDS011;21128;50.016;20.002;2023-10-13T07:37:35;19.30;;;8.10;;
34920;SDS011;21128;50.016;20.002;2023-10-13T07:40:03;17.10;;;8.20;;
34920;SDS011;21128;50.016;20.002;2023-10-13T07:42:48;13.00;;;6.20;;
34920;SDS011;21128;50.016;20.002;2023-10-13T07:45:15;16.40;;;6.30;;
34920;SDS011;21128;50.016;20.002;2023-10-13T07:47:51;15.30;;;7.00;;
34920;SDS011;21128;50.016;20.002;2023-10-13T07:50:18;14.50;;;6.30;;
34920;SDS011;21128;50.016;20.002;2023-10-13T07:52:51;12.10;;;6.30;;
34920;SDS011;21128;50.016;20.002;2023-10-13T07:55:53;12.40;;;5.80;;
34920;SDS011;21128;50.016;20.002;2023-10-13T07:58:28;15.60;;;5.50;;
34920;SDS011;21128;50.016;20.002;2023-10-13T08:00:58;14.90;;;5.40;;
34920;SDS011;21128;50.016;20.002;2023-10-13T08:03:25;11.20;;;5.30;;
34920;SDS011;21128;50.016;20.002;2023-10-13T08:06:01;11.40;;;4.40;;
34920;SDS011;21128;50.016;20.002;2023-10-13T08:08:37;12.20;;;5.30;;
34920;SDS011;21128;50.016;20.002;2023-10-13T08:13:39;11.50;;;4.40;;
34920;SDS011;21128;50.016;20.002;2023-10-13T08:16:13;10.70;;;4.90;;
34920;SDS011;21128;50.016;20.002;2023-10-13T08:18:49;9.40;;;4.70;;
34920;SDS011;21128;50.016;20.002;2023-10-13T08:21:17;8.10;;;4.20;;
34920;SDS011;21128;50.016;20.002;2023-10-13T08:23:50;8.60;;;4.00;;
34920;SDS011;21128;50.016;20.002;2023-10-13T08:29:07;13.20;;;4.70;;
34920;SDS011;21128;50.016;20.002;2023-10-13T08:31:50;15.10;;;4.40;;
34920;SDS011;21128;50.016;20.002;2023-10-13T08:34:30;15.90;;;4.00;;
34920;SDS011;21128;50.016;20.002;2023-10-13T08:37:10;8.80;;;4.30;;
34920;SDS011;21128;50.016;20.002;2023-10-13T08:39:56;11.30;;;4.40;;
34920;SDS011;21128;50.016;20.002;2023-10-13T08:42:31;9.20;;;4.30;;
34920;SDS011;21128;50.016;20.002;2023-10-13T08:45:08;11.80;;;4.30;;
34920;SDS011;21128;50.016;20.002;2023-10-13T08:47:57;10.70;;;3.90;;
34920;SDS011;21128;50.016;20.002;2023-10-13T08:50:35;11.60;;;4.40;;
34920;SDS011;21128;50.016;20.002;2023-10-13T08:53:16;10.30;;;4.40;;
34920;SDS011;21128;50.016;20.002;2023-10-13T08:56:00;13.20;;;4.60;;
34920;SDS011;21128;50.016;20.002;2023-10-13T08:58:37;10.30;;;4.20;;
34920;SDS011;21128;50.016;20.002;2023-10-13T09:01:20;7.50;;;3.80;;
34920;SDS011;21128;50.016;20.002;2023-10-13T09:04:06;14.70;;;4.10;;
34920;SDS011;21128;50.016;20.002;2023-10-13T09:14:41;13.70;;;4.10;;
34920;SDS011;21128;50.016;20.002;2023-10-13T09:17:12;12.40;;;4.30;;
34920;SDS011;21128;50.016;20.002;2023-10-13T09:20:00;6.40;;;3.60;;
34920;SDS011;21128;50.016;20.002;2023-10-13T09:22:50;11.90;;;3.90;;
34920;SDS011;21128;50.016;20.002;2023-10-13T09:28:10;12.80;;;4.10;;
34920;SDS011;21128;50.016;20.002;2023-10-13T09:30:59;12.80;;;3.90;;
34920;SDS011;21128;50.016;20.002;2023-10-13T09:33:27;14.10;;;4.70;;
34920;SDS011;21128;50.016;20.002;2023-10-13T09:36:12;10.40;;;4.70;;
34920;SDS011;21128;50.016;20.002;2023-10-13T09:38:39;7.60;;;3.70;;
34920;SDS011;21128;50.016;20.002;2023-10-13T09:41:07;8.10;;;4.40;;
34920;SDS011;21128;50.016;20.002;2023-10-13T09:43:52;9.90;;;4.00;;
34920;SDS011;21128;50.016;20.002;2023-10-13T09:46:25;9.40;;;4.00;;
34920;SDS011;21128;50.016;20.002;2023-10-13T09:48:57;9.10;;;3.80;;
34920;SDS011;21128;50.016;20.002;2023-10-13T09:51:34;13.80;;;3.70;;
34920;SDS011;21128;50.016;20.002;2023-10-13T09:56:40;7.80;;;4.20;;
34920;SDS011;21128;50.016;20.002;2023-10-13T09:59:22;14.10;;;3.80;;
34920;SDS011;21128;50.016;20.002;2023-10-13T10:02:01;6.30;;;3.80;;
34920;SDS011;21128;50.016;20.002;2023-10-13T10:04:54;18.40;;;4.40;;
34920;SDS011;21128;50.016;20.002;2023-10-13T10:07:38;13.40;;;4.30;;
34920;SDS011;21128;50.016;20.002;2023-10-13T10:10:20;12.80;;;4.20;;
34920;SDS011;21128;50.016;20.002;2023-10-13T10:12:52;11.50;;;3.80;;
34920;SDS011;21128;50.016;20.002;2023-10-13T10:15:34;8.40;;;4.20;;
34920;SDS011;21128;50.016;20.002;2023-10-13T10:20:48;9.70;;;3.50;;
34920;SDS011;21128;50.016;20.002;2023-10-13T10:23:25;8.60;;;4.60;;
34920;SDS011;21128;50.016;20.002;2023-10-13T10:25:55;9.00;;;4.20;;
34920;SDS011;21128;50.016;20.002;2023-10-13T10:28:38;12.10;;;4.10;;
34920;SDS011;21128;50.016;20.002;2023-10-13T10:31:08;10.00;;;4.10;;
34920;SDS011;21128;50.016;20.002;2023-10-13T10:33:39;9.60;;;3.90;;
34920;SDS011;21128;50.016;20.002;2023-10-13T10:36:06;14.50;;;4.20;;
34920;SDS011;21128;50.016;20.002;2023-10-13T10:39:00;10.30;;;4.20;;
34920;SDS011;21128;50.016;20.002;2023-10-13T10:41:31;7.10;;;3.70;;
34920;SDS011;21128;50.016;20.002;2023-10-13T10:44:10;10.20;;;4.40;;
34920;SDS011;21128;50.016;20.002;2023-10-13T10:46:42;10.20;;;4.60;;
34920;SDS011;21128;50.016;20.002;2023-10-13T10:49:25;8.30;;;3.50;;
34920;SDS011;21128;50.016;20.002;2023-10-13T10:51:57;12.20;;;4.20;;
34920;SDS011;21128;50.016;20.002;2023-10-13T10:54:32;9.60;;;4.00;;
34920;SDS011;21128;50.016;20.002;2023-10-13T10:56:59;9.00;;;4.50;;
34920;SDS011;21128;50.016;20.002;2023-10-13T10:59:44;10.10;;;4.00;;
34920;SDS011;21128;50.016;20.002;2023-10-13T11:02:12;8.20;;;3.90;;
34920;SDS011;21128;50.016;20.002;2023-10-13T11:04:50;12.60;;;4.10;;
34920;SDS011;21128;50.016;20.002;2023-10-13T11:07:21;12.10;;;4.50;;
34920;SDS011;21128;50.016;20.002;2023-10-13T11:09:49;10.00;;;3.80;;
34920;SDS011;21128;50.016;20.002;2023-10-13T11:12:19;15.70;;;4.50;;
34920;SDS011;21128;50.016;20.002;2023-10-13T11:15:00;9.80;;;3.30;;
34920;SDS011;21128;50.016;20.002;2023-10-13T11:17:29;6.80;;;3.50;;
34920;SDS011;21128;50.016;20.002;2023-10-13T11:20:08;10.20;;;4.10;;
34920;SDS011;21128;50.016;20.002;2023-10-13T11:22:52;12.60;;;3.40;;
34920;SDS011;21128;50.016;20.002;2023-10-13T11:25:26;11.70;;;3.20;;
34920;SDS011;21128;50.016;20.002;2023-10-13T11:27:56;8.70;;;3.80;;
34920;SDS011;21128;50.016;20.002;2023-10-13T11:30:32;10.00;;;3.20;;
34920;SDS011;21128;50.016;20.002;2023-10-13T11:33:06;8.50;;;3.40;;
34920;SDS011;21128;50.016;20.002;2023-10-13T11:40:58;10.80;;;3.70;;
34920;SDS011;21128;50.016;20.002;2023-10-13T11:43:36;9.00;;;3.70;;
34920;SDS011;21128;50.016;20.002;2023-10-13T11:46:23;11.10;;;3.80;;
34920;SDS011;21128;50.016;20.002;2023-10-13T11:49:02;13.10;;;3.60;;
34920;SDS011;21128;50.016;20.002;2023-10-13T11:51:46;7.20;;;3.60;;
34920;SDS011;21128;50.016;20.002;2023-10-13T11:56:47;9.10;;;2.90;;
34920;SDS011;21128;50.016;20.002;2023-10-13T11:59:15;10.90;;;3.60;;
34920;SDS011;21128;50.016;20.002;2023-10-13T12:01:53;13.60;;;3.00;;
34920;SDS011;21128;50.016;20.002;2023-10-13T12:04:39;7.30;;;2.80;;
34920;SDS011;21128;50.016;20.002;2023-10-13T12:07:23;8.60;;;2.90;;
34920;SDS011;21128;50.016;20.002;2023-10-13T12:09:53;6.10;;;2.50;;
34920;SDS011;21128;50.016;20.002;2023-10-13T12:12:21;5.40;;;2.80;;
34920;SDS011;21128;50.016;20.002;2023-10-13T12:14:53;9.00;;;3.00;;
34920;SDS011;21128;50.016;20.002;2023-10-13T12:17:27;13.10;;;2.80;;
34920;SDS011;21128;50.016;20.002;2023-10-13T12:19:58;12.40;;;3.10;;
34920;SDS011;21128;50.016;20.002;2023-10-13T12:22:31;6.70;;;2.90;;
34920;SDS011;21128;50.016;20.002;2023-10-13T12:25:25;10.00;;;3.20;;
34920;SDS011;21128;50.016;20.002;2023-10-13T12:28:00;11.10;;;3.30;;
34920;SDS011;21128;50.016;20.002;2023-10-13T12:30:45;9.80;;;3.40;;
34920;SDS011;21128;50.016;20.002;2023-10-13T12:33:15;7.40;;;3.50;;
34920;SDS011;21128;50.016;20.002;2023-10-13T12:36:00;6.80;;;3.00;;
34920;SDS011;21128;50.016;20.002;2023-10-13T12:38:37;8.70;;;3.50;;
34920;SDS011;21128;50.016;20.002;2023-10-13T12:41:19;7.80;;;3.10;;
34920;SDS011;21128;50.016;20.002;2023-10-13T12:44:06;7.50;;;3.30;;
34920;SDS011;21128;50.016;20.002;2023-10-13T12:46:52;11.40;;;3.90;;
34920;SDS011;21128;50.016;20.002;2023-10-13T12:49:37;8.90;;;3.10;;
34920;SDS011;21128;50.016;20.002;2023-10-13T12:52:14;8.40;;;3.30;;
34920;SDS011;21128;50.016;20.002;2023-10-13T12:54:54;9.20;;;3.10;;
34920;SDS011;21128;50.016;20.002;2023-10-13T12:57:24;5.60;;;2.90;;
34920;SDS011;21128;50.016;20.002;2023-10-13T12:59:52;9.30;;;3.00;;
34920;SDS011;21128;50.016;20.002;2023-10-13T13:02:26;7.70;;;3.40;;
34920;SDS011;21128;50.016;20.002;2023-10-13T13:04:54;8.20;;;2.80;;
34920;SDS011;21128;50.016;20.002;2023-10-13T13:07:32;7.40;;;3.20;;
34920;SDS011;21128;50.016;20.002;2023-10-13T13:10:10;6.30;;;3.20;;
34920;SDS011;21128;50.016;20.002;2023-10-13T13:12:38;6.00;;;3.20;;
34920;SDS011;21128;50.016;20.002;2023-10-13T13:15:05;9.50;;;3.30;;
34920;SDS011;21128;50.016;20.002;2023-10-13T13:17:35;13.40;;;3.10;;
34920;SDS011;21128;50.016;20.002;2023-10-13T13:20:03;10.70;;;4.00;;
34920;SDS011;21128;50.016;20.002;2023-10-13T13:22:40;14.20;;;4.10;;
34920;SDS011;21128;50.016;20.002;2023-10-13T13:25:07;6.30;;;3.40;;
34920;SDS011;21128;50.016;20.002;2023-10-13T13:27:35;5.90;;;3.30;;
34920;SDS011;21128;50.016;20.002;2023-10-13T13:30:03;7.10;;;3.80;;
34920;SDS011;21128;50.016;20.002;2023-10-13T13:32:39;10.80;;;4.20;;
34920;SDS011;21128;50.016;20.002;2023-10-13T13:35:07;12.20;;;3.30;;
34920;SDS011;21128;50.016;20.002;2023-10-13T13:37:40;8.50;;;3.10;;
34920;SDS011;21128;50.016;20.002;2023-10-13T13:40:09;10.00;;;3.20;;
34920;SDS011;21128;50.016;20.002;2023-10-13T13:42:43;8.30;;;3.10;;
34920;SDS011;21128;50.016;20.002;2023-10-13T13:45:15;5.50;;;2.90;;
34920;SDS011;21128;50.016;20.002;2023-10-13T13:47:53;8.60;;;3.70;;
34920;SDS011;21128;50.016;20.002;2023-10-13T13:50:22;7.50;;;3.40;;
34920;SDS011;21128;50.016;20.002;2023-10-13T13:52:56;9.60;;;3.60;;
34920;SDS011;21128;50.016;20.002;2023-10-13T13:55:23;8.40;;;3.00;;
34920;SDS011;21128;50.016;20.002;2023-10-13T13:57:58;10.00;;;3.30;;
34920;SDS011;21128;50.016;20.002;2023-10-13T14:00:25;3.80;;;2.70;;
34920;SDS011;21128;50.016;20.002;2023-10-13T14:03:05;7.80;;;3.20;;
34920;SDS011;21128;50.016;20.002;2023-10-13T14:05:42;5.30;;;3.20;;
34920;SDS011;21128;50.016;20.002;2023-10-13T14:08:09;5.50;;;3.00;;
34920;SDS011;21128;50.016;20.002;2023-10-13T14:10:38;8.20;;;3.40;;
34920;SDS011;21128;50.016;20.002;2023-10-13T14:13:40;8.30;;;3.00;;
34920;SDS011;21128;50.016;20.002;2023-10-13T14:16:16;5.90;;;3.10;;
34920;SDS011;21128;50.016;20.002;2023-10-13T14:18:45;6.40;;;2.90;;
34920;SDS011;21128;50.016;20.002;2023-10-13T14:21:13;6.90;;;3.30;;
34920;SDS011;21128;50.016;20.002;2023-10-13T14:23:44;7.50;;;3.40;;
34920;SDS011;21128;50.016;20.002;2023-10-13T14:26:17;10.60;;;3.20;;
34920;SDS011;21128;50.016;20.002;2023-10-13T14:28:48;10.90;;;3.50;;
34920;SDS011;21128;50.016;20.002;2023-10-13T14:31:28;12.90;;;2.70;;
34920;SDS011;21128;50.016;20.002;2023-10-13T14:33:56;6.50;;;3.50;;
34920;SDS011;21128;50.016;20.002;2023-10-13T14:36:23;15.40;;;3.90;;
34920;SDS011;21128;50.016;20.002;2023-10-13T14:38:55;6.90;;;3.10;;
34920;SDS011;21128;50.016;20.002;2023-10-13T14:41:22;10.00;;;3.10;;
34920;SDS011;21128;50.016;20.002;2023-10-13T14:43:50;8.40;;;2.90;;
34920;SDS011;21128;50.016;20.002;2023-10-13T14:46:20;5.10;;;2.80;;
34920;SDS011;21128;50.016;20.002;2023-10-13T14:48:53;8.30;;;3.00;;
34920;SDS011;21128;50.016;20.002;2023-10-13T14:51:20;6.80;;;3.10;;
34920;SDS011;21128;50.016;20.002;2023-10-13T14:53:47;8.10;;;3.30;;
34920;SDS011;21128;50.016;20.002;2023-10-13T14:56:15;15.10;;;4.60;;
34920;SDS011;21128;50.016;20.002;2023-10-13T14:58:44;7.70;;;3.40;;
34920;SDS011;21128;50.016;20.002;2023-10-13T15:01:11;14.00;;;3.40;;
34920;SDS011;21128;50.016;20.002;2023-10-13T15:03:42;4.90;;;3.10;;
34920;SDS011;21128;50.016;20.002;2023-10-13T15:06:22;7.70;;;3.50;;
34920;SDS011;21128;50.016;20.002;2023-10-13T15:08:57;11.90;;;3.20;;
34920;SDS011;21128;50.016;20.002;2023-10-13T15:11:26;6.50;;;3.20;;
34920;SDS011;21128;50.016;20.002;2023-10-13T15:14:00;8.20;;;3.20;;
34920;SDS011;21128;50.016;20.002;2023-10-13T15:16:27;7.80;;;3.60;;
34920;SDS011;21128;50.016;20.002;2023-10-13T15:18:54;6.30;;;3.00;;
34920;SDS011;21128;50.016;20.002;2023-10-13T15:21:22;8.30;;;3.00;;
34920;SDS011;21128;50.016;20.002;2023-10-13T15:23:55;8.00;;;3.10;;
34920;SDS011;21128;50.016;20.002;2023-10-13T15:26:40;5.30;;;3.10;;
34920;SDS011;21128;50.016;20.002;2023-10-13T15:29:11;11.30;;;2.90;;
34920;SDS011;21128;50.016;20.002;2023-10-13T15:31:39;11.00;;;3.40;;
34920;SDS011;21128;50.016;20.002;2023-10-13T15:34:13;10.80;;;3.80;;
34920;SDS011;21128;50.016;20.002;2023-10-13T15:36:40;8.00;;;3.90;;
34920;SDS011;21128;50.016;20.002;2023-10-13T15:39:11;12.60;;;3.60;;
34920;SDS011;21128;50.016;20.002;2023-10-13T15:41:41;7.90;;;3.20;;
34920;SDS011;21128;50.016;20.002;2023-10-13T15:44:12;7.10;;;3.50;;
34920;SDS011;21128;50.016;20.002;2023-10-13T15:46:39;8.90;;;4.10;;
34920;SDS011;21128;50.016;20.002;2023-10-13T15:49:06;14.80;;;3.80;;
34920;SDS011;21128;50.016;20.002;2023-10-13T15:51:33;7.70;;;3.40;;